sensor_id;sensor_type;location;lat;lon;timestamp;P1;durP1;ratioP1;P2;durP2;ratioP2
66546;SDS011;53400;50.364;14.874;2023-05-17T00:00:33;9.32;;;4.85;;
66546;SDS011;53400;50.364;14.874;2023-05-17T00:03:14;8.60;;;5.20;;
66546;SDS011;53400;50.364;14.874;2023-05-17T00:05:40;10.10;;;5.00;;
66546;SDS011;53400;50.364;14.874;2023-05-17T00:08:06;8.85;;;5.25;;
66546;SDS011;53400;50.364;14.874;2023-05-17T00:10:34;10.90;;;5.47;;
66546;SDS011;53400;50.364;14.874;2023-05-17T00:12:59;11.13;;;4.95;;
66546;SDS011;53400;50.364;14.874;2023-05-17T00:15:25;12.82;;;5.35;;
66546;SDS011;53400;50.364;14.874;2023-05-17T00:17:51;9.10;;;4.85;;
66546;SDS011;53400;50.364;14.874;2023-05-17T00:20:17;12.02;;;5.13;;
66546;SDS011;53400;50.364;14.874;2023-05-17T00:22:43;8.40;;;4.70;;
66546;SDS011;53400;50.364;14.874;2023-05-17T00:25:12;9.27;;;4.43;;
66546;SDS011;53400;50.364;14.874;2023-05-17T00:27:39;14.05;;;5.70;;
66546;SDS011;53400;50.364;14.874;2023-05-17T00:30:05;9.48;;;4.88;;
66546;SDS011;53400;50.364;14.874;2023-05-17T00:32:32;9.07;;;4.82;;
66546;SDS011;53400;50.364;14.874;2023-05-17T00:34:58;10.80;;;4.85;;
66546;SDS011;53400;50.364;14.874;2023-05-17T00:37:24;9.43;;;4.90;;
66546;SDS011;53400;50.364;14.874;2023-05-17T00:39:50;8.20;;;4.18;;
66546;SDS011;53400;50.364;14.874;2023-05-17T00:42:17;7.45;;;3.80;;
66546;SDS011;53400;50.364;14.874;2023-05-17T00:44:44;10.27;;;4.07;;
66546;SDS011;53400;50.364;14.874;2023-05-17T00:47:10;7.47;;;3.00;;
66546;SDS011;53400;50.364;14.874;2023-05-17T00:49:36;7.72;;;2.58;;
66546;SDS011;53400;50.364;14.874;2023-05-17T00:52:02;8.48;;;2.80;;
66546;SDS011;53400;50.364;14.874;2023-05-17T00:54:29;7.03;;;2.40;;
66546;SDS011;53400;50.364;14.874;2023-05-17T00:56:55;5.88;;;2.47;;
66546;SDS011;53400;50.364;14.874;2023-05-17T00:59:23;7.90;;;2.60;;
66546;SDS011;53400;50.364;14.874;2023-05-17T01:01:52;6.47;;;2.47;;
66546;SDS011;53400;50.364;14.874;2023-05-17T01:04:19;5.72;;;1.80;;
66546;SDS011;53400;50.364;14.874;2023-05-17T01:06:45;5.90;;;1.90;;
66546;SDS011;53400;50.364;14.874;2023-05-17T01:09:11;5.05;;;1.90;;
66546;SDS011;53400;50.364;14.874;2023-05-17T01:11:38;6.82;;;1.73;;
66546;SDS011;53400;50.364;14.874;2023-05-17T01:14:17;8.20;;;1.83;;
66546;SDS011;53400;50.364;14.874;2023-05-17T01:16:56;6.57;;;1.63;;
66546;SDS011;53400;50.364;14.874;2023-05-17T01:19:33;5.25;;;1.70;;
66546;SDS011;53400;50.364;14.874;2023-05-17T01:22:20;7.07;;;1.52;;
66546;SDS011;53400;50.364;14.874;2023-05-17T01:25:00;5.05;;;1.65;;
66546;SDS011;53400;50.364;14.874;2023-05-17T01:27:40;8.57;;;2.60;;
66546;SDS011;53400;50.364;14.874;2023-05-17T01:30:07;6.43;;;1.70;;
66546;SDS011;53400;50.364;14.874;2023-05-17T01:32:36;5.75;;;1.50;;
66546;SDS011;53400;50.364;14.874;2023-05-17T01:35:05;7.72;;;1.75;;
66546;SDS011;53400;50.364;14.874;2023-05-17T01:37:31;6.60;;;1.80;;
66546;SDS011;53400;50.364;14.874;2023-05-17T01:39:57;4.63;;;1.38;;
66546;SDS011;53400;50.364;14.874;2023-05-17T01:42:30;5.50;;;1.67;;
66546;SDS011;53400;50.364;14.874;2023-05-17T01:45:02;5.10;;;1.73;;
66546;SDS011;53400;50.364;14.874;2023-05-17T01:47:32;6.72;;;1.60;;
66546;SDS011;53400;50.364;14.874;2023-05-17T01:50:08;6.75;;;1.80;;
66546;SDS011;53400;50.364;14.874;2023-05-17T01:52:37;4.65;;;1.63;;
66546;SDS011;53400;50.364;14.874;2023-05-17T01:55:08;6.25;;;2.00;;
66546;SDS011;53400;50.364;14.874;2023-05-17T01:57:40;3.28;;;1.35;;
66546;SDS011;53400;50.364;14.874;2023-05-17T02:00:11;5.60;;;1.60;;
66546;SDS011;53400;50.364;14.874;2023-05-17T02:02:38;6.50;;;1.45;;
66546;SDS011;53400;50.364;14.874;2023-05-17T02:05:05;5.53;;;1.60;;
66546;SDS011;53400;50.364;14.874;2023-05-17T02:07:31;4.57;;;1.63;;
66546;SDS011;53400;50.364;14.874;2023-05-17T02:09:57;6.68;;;1.30;;
66546;SDS011;53400;50.364;14.874;2023-05-17T02:12:23;5.28;;;1.35;;
66546;SDS011;53400;50.364;14.874;2023-05-17T02:14:50;5.03;;;1.60;;
66546;SDS011;53400;50.364;14.874;2023-05-17T02:17:17;5.45;;;1.60;;
66546;SDS011;53400;50.364;14.874;2023-05-17T02:19:43;5.75;;;1.85;;
66546;SDS011;53400;50.364;14.874;2023-05-17T02:22:09;5.78;;;1.48;;
66546;SDS011;53400;50.364;14.874;2023-05-17T02:24:35;6.00;;;1.55;;
66546;SDS011;53400;50.364;14.874;2023-05-17T02:27:01;6.35;;;1.60;;
66546;SDS011;53400;50.364;14.874;2023-05-17T02:29:28;7.47;;;1.52;;
66546;SDS011;53400;50.364;14.874;2023-05-17T02:31:53;5.38;;;1.17;;
66546;SDS011;53400;50.364;14.874;2023-05-17T02:34:21;5.90;;;1.30;;
66546;SDS011;53400;50.364;14.874;2023-05-17T02:36:46;4.95;;;1.50;;
66546;SDS011;53400;50.364;14.874;2023-05-17T02:39:13;6.43;;;1.77;;
66546;SDS011;53400;50.364;14.874;2023-05-17T02:41:38;4.97;;;1.30;;
66546;SDS011;53400;50.364;14.874;2023-05-17T02:44:04;4.22;;;1.55;;
66546;SDS011;53400;50.364;14.874;2023-05-17T02:46:30;5.25;;;1.48;;
66546;SDS011;53400;50.364;14.874;2023-05-17T02:48:56;3.85;;;1.40;;
66546;SDS011;53400;50.364;14.874;2023-05-17T02:51:23;5.35;;;1.33;;
66546;SDS011;53400;50.364;14.874;2023-05-17T02:53:49;5.38;;;1.58;;
66546;SDS011;53400;50.364;14.874;2023-05-17T02:56:15;5.72;;;1.80;;
66546;SDS011;53400;50.364;14.874;2023-05-17T02:58:41;6.07;;;1.45;;
66546;SDS011;53400;50.364;14.874;2023-05-17T03:01:07;4.57;;;1.52;;
66546;SDS011;53400;50.364;14.874;2023-05-17T03:03:34;5.90;;;1.60;;
66546;SDS011;53400;50.364;14.874;2023-05-17T03:06:00;6.05;;;1.40;;
66546;SDS011;53400;50.364;14.874;2023-05-17T03:08:28;3.88;;;1.40;;
66546;SDS011;53400;50.364;14.874;2023-05-17T03:10:54;8.73;;;2.13;;
66546;SDS011;53400;50.364;14.874;2023-05-17T03:13:20;6.05;;;1.80;;
66546;SDS011;53400;50.364;14.874;2023-05-17T03:15:46;5.95;;;1.50;;
66546;SDS011;53400;50.364;14.874;2023-05-17T03:18:12;4.50;;;1.85;;
66546;SDS011;53400;50.364;14.874;2023-05-17T03:20:38;4.45;;;1.52;;
66546;SDS011;53400;50.364;14.874;2023-05-17T03:23:04;5.13;;;1.73;;
66546;SDS011;53400;50.364;14.874;2023-05-17T03:25:34;6.28;;;1.80;;
66546;SDS011;53400;50.364;14.874;2023-05-17T03:28:00;4.93;;;1.90;;
66546;SDS011;53400;50.364;14.874;2023-05-17T03:30:26;6.82;;;1.92;;
66546;SDS011;53400;50.364;14.874;2023-05-17T03:32:53;6.38;;;1.70;;
66546;SDS011;53400;50.364;14.874;2023-05-17T03:35:19;7.22;;;1.63;;
66546;SDS011;53400;50.364;14.874;2023-05-17T03:37:46;5.50;;;1.70;;
66546;SDS011;53400;50.364;14.874;2023-05-17T03:40:11;6.45;;;1.50;;
66546;SDS011;53400;50.364;14.874;2023-05-17T03:42:39;6.18;;;1.65;;
66546;SDS011;53400;50.364;14.874;2023-05-17T03:45:06;8.00;;;1.70;;
66546;SDS011;53400;50.364;14.874;2023-05-17T03:47:32;7.50;;;1.65;;
66546;SDS011;53400;50.364;14.874;2023-05-17T03:49:58;5.75;;;1.52;;
66546;SDS011;53400;50.364;14.874;2023-05-17T03:52:24;5.07;;;1.60;;
66546;SDS011;53400;50.364;14.874;2023-05-17T03:54:50;7.65;;;1.90;;
66546;SDS011;53400;50.364;14.874;2023-05-17T03:57:16;7.70;;;1.77;;
66546;SDS011;53400;50.364;14.874;2023-05-17T03:59:45;4.32;;;1.40;;
66546;SDS011;53400;50.364;14.874;2023-05-17T04:02:13;3.85;;;1.50;;
66546;SDS011;53400;50.364;14.874;2023-05-17T04:04:40;4.00;;;1.17;;
66546;SDS011;53400;50.364;14.874;2023-05-17T04:07:06;4.95;;;1.30;;
66546;SDS011;53400;50.364;14.874;2023-05-17T04:09:32;6.75;;;1.52;;
66546;SDS011;53400;50.364;14.874;2023-05-17T04:11:59;5.10;;;1.50;;
66546;SDS011;53400;50.364;14.874;2023-05-17T04:14:25;6.70;;;1.85;;
66546;SDS011;53400;50.364;14.874;2023-05-17T04:16:53;6.35;;;1.55;;
66546;SDS011;53400;50.364;14.874;2023-05-17T04:19:19;5.57;;;1.70;;
66546;SDS011;53400;50.364;14.874;2023-05-17T04:21:45;6.00;;;1.70;;
66546;SDS011;53400;50.364;14.874;2023-05-17T04:24:11;7.32;;;1.88;;
66546;SDS011;53400;50.364;14.874;2023-05-17T04:26:37;5.18;;;1.55;;
66546;SDS011;53400;50.364;14.874;2023-05-17T04:29:04;4.95;;;1.95;;
66546;SDS011;53400;50.364;14.874;2023-05-17T04:31:31;6.35;;;1.45;;
66546;SDS011;53400;50.364;14.874;2023-05-17T04:33:59;8.05;;;1.77;;
66546;SDS011;53400;50.364;14.874;2023-05-17T04:36:25;6.97;;;1.80;;
66546;SDS011;53400;50.364;14.874;2023-05-17T04:38:51;4.60;;;1.65;;
66546;SDS011;53400;50.364;14.874;2023-05-17T04:41:17;5.78;;;1.52;;
66546;SDS011;53400;50.364;14.874;2023-05-17T04:43:43;7.00;;;1.58;;
66546;SDS011;53400;50.364;14.874;2023-05-17T04:46:09;6.05;;;1.67;;
66546;SDS011;53400;50.364;14.874;2023-05-17T04:48:35;7.90;;;1.90;;
66546;SDS011;53400;50.364;14.874;2023-05-17T04:51:05;5.00;;;1.70;;
66546;SDS011;53400;50.364;14.874;2023-05-17T04:53:30;5.18;;;1.48;;
66546;SDS011;53400;50.364;14.874;2023-05-17T04:55:57;5.05;;;1.52;;
66546;SDS011;53400;50.364;14.874;2023-05-17T04:58:23;7.60;;;1.65;;
66546;SDS011;53400;50.364;14.874;2023-05-17T05:00:50;6.88;;;1.55;;
66546;SDS011;53400;50.364;14.874;2023-05-17T05:03:19;6.68;;;1.58;;
66546;SDS011;53400;50.364;14.874;2023-05-17T05:05:51;5.40;;;1.40;;
66546;SDS011;53400;50.364;14.874;2023-05-17T05:08:18;6.10;;;2.00;;
66546;SDS011;53400;50.364;14.874;2023-05-17T05:10:46;5.88;;;1.55;;
66546;SDS011;53400;50.364;14.874;2023-05-17T05:13:12;5.55;;;1.58;;
66546;SDS011;53400;50.364;14.874;2023-05-17T05:15:38;9.30;;;2.25;;
66546;SDS011;53400;50.364;14.874;2023-05-17T05:18:04;5.60;;;2.03;;
66546;SDS011;53400;50.364;14.874;2023-05-17T05:20:30;4.95;;;2.00;;
66546;SDS011;53400;50.364;14.874;2023-05-17T05:22:56;4.20;;;1.65;;
66546;SDS011;53400;50.364;14.874;2023-05-17T05:25:25;4.25;;;1.40;;
66546;SDS011;53400;50.364;14.874;2023-05-17T05:27:51;5.18;;;1.45;;
66546;SDS011;53400;50.364;14.874;2023-05-17T05:30:17;4.25;;;1.35;;
66546;SDS011;53400;50.364;14.874;2023-05-17T05:32:46;7.43;;;1.90;;
66546;SDS011;53400;50.364;14.874;2023-05-17T05:35:13;5.75;;;1.40;;
66546;SDS011;53400;50.364;14.874;2023-05-17T05:37:39;4.57;;;1.30;;
66546;SDS011;53400;50.364;14.874;2023-05-17T05:40:06;5.90;;;1.92;;
66546;SDS011;53400;50.364;14.874;2023-05-17T05:42:34;6.25;;;1.90;;
66546;SDS011;53400;50.364;14.874;2023-05-17T05:45:00;5.85;;;1.90;;
66546;SDS011;53400;50.364;14.874;2023-05-17T05:47:26;4.68;;;1.67;;
66546;SDS011;53400;50.364;14.874;2023-05-17T05:49:52;5.43;;;1.70;;
66546;SDS011;53400;50.364;14.874;2023-05-17T05:52:19;7.60;;;3.20;;
66546;SDS011;53400;50.364;14.874;2023-05-17T05:54:45;6.22;;;1.90;;
66546;SDS011;53400;50.364;14.874;2023-05-17T05:57:11;5.90;;;1.70;;
66546;SDS011;53400;50.364;14.874;2023-05-17T05:59:39;7.38;;;2.08;;
66546;SDS011;53400;50.364;14.874;2023-05-17T06:02:05;6.07;;;1.65;;
66546;SDS011;53400;50.364;14.874;2023-05-17T06:04:31;5.65;;;1.75;;
66546;SDS011;53400;50.364;14.874;2023-05-17T06:06:57;6.72;;;1.80;;
66546;SDS011;53400;50.364;14.874;2023-05-17T06:09:23;6.47;;;2.10;;
66546;SDS011;53400;50.364;14.874;2023-05-17T06:11:51;7.05;;;2.03;;
66546;SDS011;53400;50.364;14.874;2023-05-17T06:14:18;6.50;;;2.25;;
66546;SDS011;53400;50.364;14.874;2023-05-17T06:16:45;7.03;;;2.20;;
66546;SDS011;53400;50.364;14.874;2023-05-17T06:19:13;6.47;;;2.17;;
66546;SDS011;53400;50.364;14.874;2023-05-17T06:21:38;7.57;;;2.22;;
66546;SDS011;53400;50.364;14.874;2023-05-17T06:24:05;6.03;;;2.08;;
66546;SDS011;53400;50.364;14.874;2023-05-17T06:26:31;7.63;;;2.30;;
66546;SDS011;53400;50.364;14.874;2023-05-17T06:28:58;7.32;;;2.50;;
66546;SDS011;53400;50.364;14.874;2023-05-17T06:31:26;8.70;;;2.30;;
66546;SDS011;53400;50.364;14.874;2023-05-17T06:33:55;7.97;;;2.28;;
66546;SDS011;53400;50.364;14.874;2023-05-17T06:36:22;7.50;;;2.63;;
66546;SDS011;53400;50.364;14.874;2023-05-17T06:38:51;6.20;;;2.08;;
66546;SDS011;53400;50.364;14.874;2023-05-17T06:41:18;8.27;;;2.55;;
66546;SDS011;53400;50.364;14.874;2023-05-17T06:43:45;7.47;;;2.25;;
66546;SDS011;53400;50.364;14.874;2023-05-17T06:46:12;8.25;;;2.42;;
66546;SDS011;53400;50.364;14.874;2023-05-17T06:48:39;9.73;;;3.08;;
66546;SDS011;53400;50.364;14.874;2023-05-17T06:51:06;7.60;;;2.50;;
66546;SDS011;53400;50.364;14.874;2023-05-17T06:53:32;9.45;;;2.80;;
66546;SDS011;53400;50.364;14.874;2023-05-17T06:55:58;7.20;;;2.38;;
66546;SDS011;53400;50.364;14.874;2023-05-17T06:58:27;11.32;;;3.33;;
66546;SDS011;53400;50.364;14.874;2023-05-17T07:00:53;10.30;;;3.38;;
66546;SDS011;53400;50.364;14.874;2023-05-17T07:03:19;9.30;;;2.97;;
66546;SDS011;53400;50.364;14.874;2023-05-17T07:05:45;6.13;;;2.40;;
66546;SDS011;53400;50.364;14.874;2023-05-17T07:08:12;7.47;;;2.92;;
66546;SDS011;53400;50.364;14.874;2023-05-17T07:10:39;8.25;;;3.00;;
66546;SDS011;53400;50.364;14.874;2023-05-17T07:13:05;8.95;;;3.33;;
66546;SDS011;53400;50.364;14.874;2023-05-17T07:15:31;8.27;;;2.88;;
66546;SDS011;53400;50.364;14.874;2023-05-17T07:17:58;8.68;;;2.80;;
66546;SDS011;53400;50.364;14.874;2023-05-17T07:20:23;9.55;;;2.80;;
66546;SDS011;53400;50.364;14.874;2023-05-17T07:22:50;10.25;;;3.13;;
66546;SDS011;53400;50.364;14.874;2023-05-17T07:25:17;8.13;;;3.25;;
66546;SDS011;53400;50.364;14.874;2023-05-17T07:27:45;10.93;;;2.92;;
66546;SDS011;53400;50.364;14.874;2023-05-17T07:30:12;10.55;;;3.15;;
66546;SDS011;53400;50.364;14.874;2023-05-17T07:32:38;9.95;;;3.85;;
66546;SDS011;53400;50.364;14.874;2023-05-17T07:35:04;10.05;;;4.32;;
66546;SDS011;53400;50.364;14.874;2023-05-17T07:37:31;12.98;;;4.68;;
66546;SDS011;53400;50.364;14.874;2023-05-17T07:39:56;10.95;;;3.38;;
66546;SDS011;53400;50.364;14.874;2023-05-17T07:42:24;10.35;;;3.80;;
66546;SDS011;53400;50.364;14.874;2023-05-17T07:44:50;11.05;;;4.05;;
66546;SDS011;53400;50.364;14.874;2023-05-17T07:47:16;8.00;;;3.00;;
66546;SDS011;53400;50.364;14.874;2023-05-17T07:49:42;8.43;;;3.45;;
66546;SDS011;53400;50.364;14.874;2023-05-17T07:52:08;12.02;;;3.72;;
66546;SDS011;53400;50.364;14.874;2023-05-17T07:54:34;8.82;;;3.20;;
66546;SDS011;53400;50.364;14.874;2023-05-17T07:57:04;7.82;;;3.47;;
66546;SDS011;53400;50.364;14.874;2023-05-17T07:59:31;9.02;;;3.40;;
66546;SDS011;53400;50.364;14.874;2023-05-17T08:01:58;8.20;;;3.00;;
66546;SDS011;53400;50.364;14.874;2023-05-17T08:04:24;9.40;;;3.40;;
66546;SDS011;53400;50.364;14.874;2023-05-17T08:06:51;8.77;;;3.00;;
66546;SDS011;53400;50.364;14.874;2023-05-17T08:09:17;12.10;;;3.80;;
66546;SDS011;53400;50.364;14.874;2023-05-17T08:11:44;8.23;;;3.47;;
66546;SDS011;53400;50.364;14.874;2023-05-17T08:14:10;11.15;;;3.67;;
66546;SDS011;53400;50.364;14.874;2023-05-17T08:16:39;9.02;;;3.13;;
66546;SDS011;53400;50.364;14.874;2023-05-17T08:19:05;9.30;;;2.95;;
66546;SDS011;53400;50.364;14.874;2023-05-17T08:21:31;8.93;;;3.08;;
66546;SDS011;53400;50.364;14.874;2023-05-17T08:23:57;9.50;;;2.95;;
66546;SDS011;53400;50.364;14.874;2023-05-17T08:26:23;8.55;;;3.20;;
66546;SDS011;53400;50.364;14.874;2023-05-17T08:28:49;13.10;;;3.60;;
66546;SDS011;53400;50.364;14.874;2023-05-17T08:31:15;12.95;;;3.38;;
66546;SDS011;53400;50.364;14.874;2023-05-17T08:33:42;9.00;;;3.42;;
66546;SDS011;53400;50.364;14.874;2023-05-17T08:36:09;9.07;;;3.20;;
66546;SDS011;53400;50.364;14.874;2023-05-17T08:38:35;8.10;;;2.70;;
66546;SDS011;53400;50.364;14.874;2023-05-17T08:41:01;11.90;;;3.35;;
66546;SDS011;53400;50.364;14.874;2023-05-17T08:43:29;11.10;;;3.65;;
66546;SDS011;53400;50.364;14.874;2023-05-17T08:45:59;10.13;;;3.53;;
66546;SDS011;53400;50.364;14.874;2023-05-17T08:48:28;10.40;;;3.75;;
66546;SDS011;53400;50.364;14.874;2023-05-17T08:50:59;9.25;;;3.30;;
66546;SDS011;53400;50.364;14.874;2023-05-17T08:53:25;9.23;;;3.15;;
66546;SDS011;53400;50.364;14.874;2023-05-17T08:55:52;10.80;;;3.25;;
66546;SDS011;53400;50.364;14.874;2023-05-17T08:58:24;10.18;;;3.33;;
66546;SDS011;53400;50.364;14.874;2023-05-17T09:00:52;9.23;;;2.97;;
66546;SDS011;53400;50.364;14.874;2023-05-17T09:03:21;9.32;;;3.40;;
66546;SDS011;53400;50.364;14.874;2023-05-17T09:05:49;8.95;;;3.08;;
66546;SDS011;53400;50.364;14.874;2023-05-17T09:08:18;11.40;;;3.67;;
66546;SDS011;53400;50.364;14.874;2023-05-17T09:10:45;8.38;;;3.30;;
66546;SDS011;53400;50.364;14.874;2023-05-17T09:13:11;8.43;;;3.78;;
66546;SDS011;53400;50.364;14.874;2023-05-17T09:15:38;7.60;;;2.67;;
66546;SDS011;53400;50.364;14.874;2023-05-17T09:18:08;10.75;;;3.15;;
66546;SDS011;53400;50.364;14.874;2023-05-17T09:20:35;7.25;;;3.30;;
66546;SDS011;53400;50.364;14.874;2023-05-17T09:23:02;8.40;;;3.33;;
66546;SDS011;53400;50.364;14.874;2023-05-17T09:25:30;8.43;;;2.60;;
66546;SDS011;53400;50.364;14.874;2023-05-17T09:27:59;7.80;;;2.88;;
66546;SDS011;53400;50.364;14.874;2023-05-17T09:30:26;8.38;;;2.90;;
66546;SDS011;53400;50.364;14.874;2023-05-17T09:32:54;9.57;;;2.70;;
66546;SDS011;53400;50.364;14.874;2023-05-17T09:35:25;7.05;;;2.90;;
66546;SDS011;53400;50.364;14.874;2023-05-17T09:37:52;8.60;;;2.38;;
66546;SDS011;53400;50.364;14.874;2023-05-17T09:40:23;6.75;;;2.38;;
66546;SDS011;53400;50.364;14.874;2023-05-17T09:42:53;7.60;;;2.20;;
66546;SDS011;53400;50.364;14.874;2023-05-17T09:45:20;6.57;;;2.20;;
66546;SDS011;53400;50.364;14.874;2023-05-17T09:47:48;8.05;;;3.35;;
66546;SDS011;53400;50.364;14.874;2023-05-17T09:50:16;6.88;;;2.20;;
66546;SDS011;53400;50.364;14.874;2023-05-17T09:52:43;8.32;;;2.45;;
66546;SDS011;53400;50.364;14.874;2023-05-17T09:55:09;5.93;;;2.15;;
66546;SDS011;53400;50.364;14.874;2023-05-17T09:57:40;6.30;;;2.47;;
66546;SDS011;53400;50.364;14.874;2023-05-17T10:00:08;7.75;;;2.25;;
66546;SDS011;53400;50.364;14.874;2023-05-17T10:02:36;8.85;;;2.83;;
66546;SDS011;53400;50.364;14.874;2023-05-17T10:05:07;7.93;;;2.90;;
66546;SDS011;53400;50.364;14.874;2023-05-17T10:07:35;5.75;;;2.42;;
66546;SDS011;53400;50.364;14.874;2023-05-17T10:10:03;5.88;;;2.30;;
66546;SDS011;53400;50.364;14.874;2023-05-17T10:12:30;8.05;;;2.60;;
66546;SDS011;53400;50.364;14.874;2023-05-17T10:15:00;6.55;;;2.63;;
66546;SDS011;53400;50.364;14.874;2023-05-17T10:17:29;7.22;;;2.65;;
66546;SDS011;53400;50.364;14.874;2023-05-17T10:19:56;8.52;;;2.75;;
66546;SDS011;53400;50.364;14.874;2023-05-17T10:22:23;7.10;;;2.45;;
66546;SDS011;53400;50.364;14.874;2023-05-17T10:24:51;7.00;;;2.80;;
66546;SDS011;53400;50.364;14.874;2023-05-17T10:27:18;6.20;;;2.30;;
66546;SDS011;53400;50.364;14.874;2023-05-17T10:29:45;6.60;;;2.58;;
66546;SDS011;53400;50.364;14.874;2023-05-17T10:32:12;9.90;;;2.70;;
66546;SDS011;53400;50.364;14.874;2023-05-17T10:34:40;8.18;;;2.65;;
66546;SDS011;53400;50.364;14.874;2023-05-17T10:37:06;8.45;;;2.70;;
66546;SDS011;53400;50.364;14.874;2023-05-17T10:39:32;7.45;;;2.60;;
66546;SDS011;53400;50.364;14.874;2023-05-17T10:41:59;7.22;;;2.70;;
66546;SDS011;53400;50.364;14.874;2023-05-17T10:44:29;6.38;;;2.58;;
66546;SDS011;53400;50.364;14.874;2023-05-17T10:46:57;5.93;;;2.45;;
66546;SDS011;53400;50.364;14.874;2023-05-17T10:49:24;6.70;;;2.90;;
66546;SDS011;53400;50.364;14.874;2023-05-17T10:51:53;8.60;;;2.75;;
66546;SDS011;53400;50.364;14.874;2023-05-17T10:54:19;7.38;;;2.65;;
66546;SDS011;53400;50.364;14.874;2023-05-17T10:56:46;7.32;;;2.88;;
66546;SDS011;53400;50.364;14.874;2023-05-17T10:59:14;8.32;;;2.80;;
66546;SDS011;53400;50.364;14.874;2023-05-17T11:01:49;7.95;;;2.92;;
66546;SDS011;53400;50.364;14.874;2023-05-17T11:04:20;7.43;;;2.60;;
66546;SDS011;53400;50.364;14.874;2023-05-17T11:06:49;10.18;;;2.70;;
66546;SDS011;53400;50.364;14.874;2023-05-17T11:09:17;7.50;;;2.70;;
66546;SDS011;53400;50.364;14.874;2023-05-17T11:12:02;7.90;;;2.75;;
66546;SDS011;53400;50.364;14.874;2023-05-17T11:14:41;7.82;;;2.53;;
66546;SDS011;53400;50.364;14.874;2023-05-17T11:17:12;4.90;;;2.30;;
66546;SDS011;53400;50.364;14.874;2023-05-17T11:19:47;6.95;;;2.95;;
66546;SDS011;53400;50.364;14.874;2023-05-17T11:22:15;8.15;;;3.20;;
66546;SDS011;53400;50.364;14.874;2023-05-17T11:24:43;6.65;;;2.72;;
66546;SDS011;53400;50.364;14.874;2023-05-17T11:27:10;8.65;;;3.15;;
66546;SDS011;53400;50.364;14.874;2023-05-17T11:29:38;6.68;;;2.45;;
66546;SDS011;53400;50.364;14.874;2023-05-17T11:32:06;7.45;;;3.00;;
66546;SDS011;53400;50.364;14.874;2023-05-17T11:34:35;8.82;;;3.30;;
66546;SDS011;53400;50.364;14.874;2023-05-17T11:37:01;7.90;;;3.05;;
66546;SDS011;53400;50.364;14.874;2023-05-17T11:39:28;6.65;;;2.90;;
66546;SDS011;53400;50.364;14.874;2023-05-17T11:41:56;9.38;;;2.63;;
66546;SDS011;53400;50.364;14.874;2023-05-17T11:44:22;8.13;;;2.70;;
66546;SDS011;53400;50.364;14.874;2023-05-17T11:46:59;9.00;;;3.88;;
66546;SDS011;53400;50.364;14.874;2023-05-17T11:49:27;8.15;;;3.30;;
66546;SDS011;53400;50.364;14.874;2023-05-17T11:51:56;12.15;;;3.65;;
66546;SDS011;53400;50.364;14.874;2023-05-17T11:54:23;9.32;;;3.17;;
66546;SDS011;53400;50.364;14.874;2023-05-17T11:56:49;11.23;;;3.22;;
66546;SDS011;53400;50.364;14.874;2023-05-17T11:59:18;8.60;;;3.70;;
66546;SDS011;53400;50.364;14.874;2023-05-17T12:01:45;11.25;;;4.38;;
66546;SDS011;53400;50.364;14.874;2023-05-17T12:04:11;9.98;;;3.78;;
66546;SDS011;53400;50.364;14.874;2023-05-17T12:06:38;9.25;;;3.63;;
66546;SDS011;53400;50.364;14.874;2023-05-17T12:09:04;7.80;;;3.10;;
66546;SDS011;53400;50.364;14.874;2023-05-17T12:11:35;7.43;;;3.15;;
66546;SDS011;53400;50.364;14.874;2023-05-17T12:14:03;9.98;;;3.83;;
66546;SDS011;53400;50.364;14.874;2023-05-17T12:16:30;7.50;;;3.05;;
66546;SDS011;53400;50.364;14.874;2023-05-17T12:18:59;6.13;;;2.90;;
66546;SDS011;53400;50.364;14.874;2023-05-17T12:21:25;8.88;;;3.78;;
66546;SDS011;53400;50.364;14.874;2023-05-17T12:23:51;8.52;;;3.42;;
66546;SDS011;53400;50.364;14.874;2023-05-17T12:26:18;7.30;;;3.50;;
66546;SDS011;53400;50.364;14.874;2023-05-17T12:28:51;8.40;;;3.30;;
66546;SDS011;53400;50.364;14.874;2023-05-17T12:31:19;9.50;;;3.83;;
66546;SDS011;53400;50.364;14.874;2023-05-17T12:33:50;8.52;;;3.40;;
66546;SDS011;53400;50.364;14.874;2023-05-17T12:36:17;10.65;;;3.58;;
66546;SDS011;53400;50.364;14.874;2023-05-17T12:38:43;6.75;;;2.95;;
66546;SDS011;53400;50.364;14.874;2023-05-17T12:41:12;8.43;;;3.30;;
66546;SDS011;53400;50.364;14.874;2023-05-17T12:43:38;9.70;;;4.22;;
66546;SDS011;53400;50.364;14.874;2023-05-17T12:46:05;7.88;;;3.22;;
66546;SDS011;53400;50.364;14.874;2023-05-17T12:48:33;9.35;;;3.63;;
66546;SDS011;53400;50.364;14.874;2023-05-17T12:51:07;11.13;;;5.78;;
66546;SDS011;53400;50.364;14.874;2023-05-17T12:53:34;10.57;;;4.03;;
66546;SDS011;53400;50.364;14.874;2023-05-17T12:56:02;9.82;;;3.40;;
66546;SDS011;53400;50.364;14.874;2023-05-17T12:58:28;8.52;;;3.20;;
66546;SDS011;53400;50.364;14.874;2023-05-17T13:00:58;10.75;;;4.30;;
66546;SDS011;53400;50.364;14.874;2023-05-17T13:03:25;11.18;;;4.05;;
66546;SDS011;53400;50.364;14.874;2023-05-17T13:06:02;9.05;;;3.92;;
66546;SDS011;53400;50.364;14.874;2023-05-17T13:08:30;8.23;;;3.75;;
66546;SDS011;53400;50.364;14.874;2023-05-17T13:11:06;13.38;;;4.05;;
66546;SDS011;53400;50.364;14.874;2023-05-17T13:13:33;9.32;;;3.60;;
66546;SDS011;53400;50.364;14.874;2023-05-17T13:15:59;7.97;;;3.22;;
66546;SDS011;53400;50.364;14.874;2023-05-17T13:18:26;7.20;;;3.10;;
66546;SDS011;53400;50.364;14.874;2023-05-17T13:20:53;8.65;;;3.50;;
66546;SDS011;53400;50.364;14.874;2023-05-17T13:23:22;8.07;;;3.30;;
66546;SDS011;53400;50.364;14.874;2023-05-17T13:25:49;8.32;;;3.15;;
66546;SDS011;53400;50.364;14.874;2023-05-17T13:28:15;8.50;;;2.88;;
66546;SDS011;53400;50.364;14.874;2023-05-17T13:30:41;9.32;;;3.40;;
66546;SDS011;53400;50.364;14.874;2023-05-17T13:33:14;8.67;;;3.27;;
66546;SDS011;53400;50.364;14.874;2023-05-17T13:35:40;8.02;;;3.08;;
66546;SDS011;53400;50.364;14.874;2023-05-17T13:38:06;8.43;;;3.72;;
66546;SDS011;53400;50.364;14.874;2023-05-17T13:40:32;7.47;;;3.22;;
66546;SDS011;53400;50.364;14.874;2023-05-17T13:42:59;7.07;;;3.17;;
66546;SDS011;53400;50.364;14.874;2023-05-17T13:45:26;10.38;;;3.08;;
66546;SDS011;53400;50.364;14.874;2023-05-17T13:47:51;7.93;;;3.03;;
66546;SDS011;53400;50.364;14.874;2023-05-17T13:50:17;9.23;;;4.00;;
66546;SDS011;53400;50.364;14.874;2023-05-17T13:52:45;9.45;;;4.03;;
66546;SDS011;53400;50.364;14.874;2023-05-17T13:55:11;12.23;;;6.30;;
66546;SDS011;53400;50.364;14.874;2023-05-17T13:57:37;7.57;;;3.72;;
66546;SDS011;53400;50.364;14.874;2023-05-17T14:00:05;8.88;;;4.18;;
66546;SDS011;53400;50.364;14.874;2023-05-17T14:02:32;11.25;;;5.53;;
66546;SDS011;53400;50.364;14.874;2023-05-17T14:04:59;13.52;;;6.78;;
66546;SDS011;53400;50.364;14.874;2023-05-17T14:07:26;9.20;;;4.07;;
66546;SDS011;53400;50.364;14.874;2023-05-17T14:09:53;13.15;;;6.53;;
66546;SDS011;53400;50.364;14.874;2023-05-17T14:12:19;19.80;;;9.57;;
66546;SDS011;53400;50.364;14.874;2023-05-17T14:14:46;10.07;;;4.38;;
66546;SDS011;53400;50.364;14.874;2023-05-17T14:17:13;7.72;;;3.72;;
66546;SDS011;53400;50.364;14.874;2023-05-17T14:19:40;8.35;;;3.78;;
66546;SDS011;53400;50.364;14.874;2023-05-17T14:22:06;8.57;;;3.72;;
66546;SDS011;53400;50.364;14.874;2023-05-17T14:24:33;11.77;;;5.43;;
66546;SDS011;53400;50.364;14.874;2023-05-17T14:27:00;15.90;;;7.50;;
66546;SDS011;53400;50.364;14.874;2023-05-17T14:29:27;8.70;;;3.92;;
66546;SDS011;53400;50.364;14.874;2023-05-17T14:31:54;18.13;;;7.95;;
66546;SDS011;53400;50.364;14.874;2023-05-17T14:34:23;17.98;;;7.60;;